Time;durP1;ratioP1;P1;durP2;ratioP2;P2;SDS_P1;SDS_P2;PMS_P1;PMS_P2;Temp;Humidity;BMP_temperature;BMP_pressure;BME280_temperature;BME280_humidity;BME280_pressure;Samples;Min_cycle;Max_cycle;Signal;HPM_P1;HPM_P2
2022/07/09 00:01:28;;;;;;;13.80;5.03;;;13.90;99.90;;;;;;4372038;28;659503;-63
2022/07/09 00:04:15;;;;;;;14.03;5.23;;;13.90;99.90;;;;;;4383569;28;658614;-64
2022/07/09 00:07:02;;;;;;;18.47;5.60;;;14.00;99.90;;;;;;4399296;28;659697;-62
2022/07/09 00:09:49;;;;;;;20.27;7.30;;;14.00;99.90;;;;;;4395136;28;658730;-63
2022/07/09 00:12:36;;;;;;;19.93;7.57;;;13.90;99.90;;;;;;4376170;28;658788;-63
2022/07/09 00:15:25;;;;;;;22.60;9.10;;;13.90;99.90;;;;;;4395041;28;658595;-63
2022/07/09 00:18:12;;;;;;;24.90;9.77;;;13.90;99.90;;;;;;4375345;28;659897;-63
2022/07/09 00:20:59;;;;;;;23.33;9.97;;;14.00;99.90;;;;;;4394326;28;658226;-62
2022/07/09 00:23:46;;;;;;;25.43;9.23;;;13.90;99.90;;;;;;4376092;28;658665;-63
2022/07/09 00:26:34;;;;;;;16.10;6.70;;;14.00;99.90;;;;;;4394593;28;658893;-62
2022/07/09 00:29:21;;;;;;;12.87;6.00;;;14.00;99.90;;;;;;4375588;28;658266;-62
2022/07/09 00:32:09;;;;;;;15.20;5.93;;;13.90;99.90;;;;;;4396931;28;659115;-63
2022/07/09 00:34:57;;;;;;;18.03;5.23;;;13.90;99.90;;;;;;4372290;28;659974;-63
2022/07/09 00:37:44;;;;;;;14.33;4.40;;;13.90;99.90;;;;;;4394765;28;658919;-63
2022/07/09 00:40:31;;;;;;;18.57;4.50;;;14.00;99.90;;;;;;4374088;28;659314;-63
2022/07/09 00:43:18;;;;;;;16.40;4.53;;;13.90;99.90;;;;;;4398512;28;659834;-62
2022/07/09 00:46:06;;;;;;;12.80;4.33;;;13.90;99.90;;;;;;4385270;28;658465;-63
2022/07/09 00:48:54;;;;;;;11.80;4.50;;;13.80;99.90;;;;;;4414143;28;659696;-62
2022/07/09 00:51:41;;;;;;;8.87;3.43;;;13.70;99.90;;;;;;4388680;28;659000;-63
2022/07/09 00:54:28;;;;;;;13.40;3.60;;;13.80;99.90;;;;;;4413209;28;658050;-63
2022/07/09 00:57:15;;;;;;;18.77;3.60;;;13.80;99.90;;;;;;4393047;28;659166;-63
2022/07/09 01:00:04;;;;;;;10.37;3.97;;;13.80;99.90;;;;;;4411824;28;659789;-63
2022/07/09 01:02:51;;;;;;;12.83;3.63;;;13.80;99.90;;;;;;4392999;28;658485;-63
2022/07/09 01:05:40;;;;;;;11.73;3.47;;;13.80;99.90;;;;;;4414574;28;659519;-63
2022/07/09 01:08:27;;;;;;;10.03;4.20;;;13.70;99.90;;;;;;4388869;28;660568;-63
2022/07/09 01:11:14;;;;;;;13.27;3.77;;;13.70;99.90;;;;;;4408417;28;658126;-63
2022/07/09 01:14:01;;;;;;;18.27;3.83;;;13.70;99.90;;;;;;4393015;28;658290;-63
2022/07/09 01:16:48;;;;;;;11.60;3.60;;;13.70;99.90;;;;;;4411641;28;659881;-63
2022/07/09 01:19:35;;;;;;;10.35;3.47;;;13.70;99.90;;;;;;4392552;28;658310;-65
2022/07/09 01:22:24;;;;;;;12.10;3.87;;;13.70;99.90;;;;;;4411830;28;659857;-63
2022/07/09 01:25:11;;;;;;;15.00;3.93;;;13.70;99.90;;;;;;4392871;28;659184;-63
2022/07/09 01:27:58;;;;;;;15.63;4.50;;;13.60;99.90;;;;;;4411343;28;659479;-63
2022/07/09 01:30:45;;;;;;;11.60;3.63;;;13.60;99.90;;;;;;4392252;28;658727;-63
2022/07/09 01:33:33;;;;;;;11.53;4.20;;;13.60;99.90;;;;;;4417193;28;659953;-63
2022/07/09 01:36:20;;;;;;;14.00;3.97;;;13.60;99.90;;;;;;4404018;28;658553;-63
2022/07/09 01:39:09;;;;;;;12.52;3.83;;;13.50;99.90;;;;;;4418774;28;659901;-63
2022/07/09 01:41:56;;;;;;;13.70;3.73;;;13.50;99.90;;;;;;4395820;28;659688;-63
2022/07/09 01:44:43;;;;;;;14.33;4.50;;;13.40;99.90;;;;;;4418453;28;659039;-63
2022/07/09 01:47:30;;;;;;;9.50;4.47;;;13.40;99.90;;;;;;4384106;28;658975;-65
2022/07/09 01:50:17;;;;;;;11.38;4.40;;;13.40;99.90;;;;;;4402494;28;658541;-63
2022/07/09 01:53:04;;;;;;;16.60;4.33;;;13.40;99.90;;;;;;4397042;28;659050;-62
2022/07/09 01:55:53;;;;;;;12.87;4.00;;;13.30;99.90;;;;;;4374309;28;658551;-63
2022/07/09 01:58:40;;;;;;;14.40;4.20;;;13.30;99.90;;;;;;4381002;28;659225;-64
2022/07/09 02:01:27;;;;;;;13.10;4.07;;;13.20;99.90;;;;;;4400936;28;659426;-63
2022/07/09 02:04:14;;;;;;;13.43;4.73;;;13.20;99.90;;;;;;4397004;28;658594;-63
2022/07/09 02:07:01;;;;;;;8.50;4.33;;;13.10;99.90;;;;;;4378365;28;660014;-63
2022/07/09 02:09:49;;;;;;;15.60;4.80;;;13.00;99.90;;;;;;4397962;28;658329;-63
2022/07/09 02:12:37;;;;;;;15.00;4.83;;;13.00;99.90;;;;;;4377872;28;658611;-63
2022/07/09 02:15:24;;;;;;;14.93;4.67;;;13.10;99.90;;;;;;4396682;28;658778;-63
2022/07/09 02:18:12;;;;;;;10.73;4.47;;;13.10;99.90;;;;;;4378436;28;659652;-62
2022/07/09 02:20:59;;;;;;;9.80;4.50;;;13.20;99.90;;;;;;4396584;28;658667;-63
2022/07/09 02:23:47;;;;;;;9.33;4.37;;;13.20;99.90;;;;;;4377033;28;657533;-62
2022/07/09 02:26:34;;;;;;;14.27;4.47;;;13.20;99.90;;;;;;4401921;28;657011;-63
2022/07/09 02:29:22;;;;;;;11.97;5.00;;;13.20;99.90;;;;;;4378015;28;658980;-63
2022/07/09 02:32:10;;;;;;;14.90;4.63;;;13.10;99.90;;;;;;4396247;28;658497;-63
2022/07/09 02:34:57;;;;;;;8.93;4.53;;;13.20;99.90;;;;;;4377825;28;659169;-63
2022/07/09 02:37:44;;;;;;;12.20;4.30;;;13.30;99.90;;;;;;4397424;28;657840;-63
2022/07/09 02:40:31;;;;;;;10.77;4.50;;;13.20;99.90;;;;;;4374934;28;659056;-64
2022/07/09 02:43:18;;;;;;;11.30;4.43;;;13.10;99.90;;;;;;4395885;28;659466;-63
2022/07/09 02:46:07;;;;;;;20.27;5.60;;;13.10;99.90;;;;;;4386846;28;658842;-63
2022/07/09 02:48:54;;;;;;;17.07;4.93;;;13.20;99.90;;;;;;4413122;28;658735;-63
2022/07/09 02:51:41;;;;;;;9.50;4.00;;;13.20;99.90;;;;;;4394752;28;658224;-63
2022/07/09 02:54:28;;;;;;;10.57;4.87;;;13.20;99.90;;;;;;4414647;28;659726;-63
2022/07/09 02:57:15;;;;;;;15.40;5.07;;;13.30;99.90;;;;;;4394610;28;658853;-64
2022/07/09 03:00:03;;;;;;;15.63;5.93;;;13.20;99.90;;;;;;4413742;28;660312;-63
2022/07/09 03:02:51;;;;;;;10.37;5.10;;;13.20;99.90;;;;;;4399015;28;658603;-66
2022/07/09 03:05:38;;;;;;;12.93;5.17;;;13.20;99.90;;;;;;4413296;28;658890;-64
2022/07/09 03:08:26;;;;;;;10.80;5.00;;;13.30;99.90;;;;;;4394156;28;659069;-64
2022/07/09 03:11:13;;;;;;;13.90;4.90;;;13.40;99.90;;;;;;4417276;28;658941;-63
2022/07/09 03:14:00;;;;;;;13.87;4.80;;;13.40;99.90;;;;;;4402089;28;658738;-66
2022/07/09 03:16:47;;;;;;;14.30;5.03;;;13.30;99.90;;;;;;4417251;28;658738;-64
2022/07/09 03:19:36;;;;;;;14.30;5.50;;;13.30;99.90;;;;;;4413173;28;658572;-63
2022/07/09 03:22:23;;;;;;;15.27;5.53;;;13.20;99.90;;;;;;4390621;28;659143;-64
2022/07/09 03:25:10;;;;;;;10.37;5.33;;;13.20;99.90;;;;;;4402445;28;659078;-65
2022/07/09 03:27:57;;;;;;;10.83;5.10;;;13.10;99.90;;;;;;4417321;28;659672;-63
2022/07/09 03:30:45;;;;;;;14.73;4.63;;;13.10;99.90;;;;;;4412674;28;658629;-63
2022/07/09 03:33:32;;;;;;;12.20;4.60;;;13.00;99.90;;;;;;4390066;28;660557;-63
2022/07/09 03:36:20;;;;;;;9.27;3.80;;;13.10;99.90;;;;;;4415283;28;658588;-64
2022/07/09 03:39:08;;;;;;;11.13;4.20;;;13.20;99.90;;;;;;4387567;28;658641;-63
2022/07/09 03:41:55;;;;;;;14.50;4.43;;;13.10;99.90;;;;;;4406469;28;658779;-65
2022/07/09 03:44:42;;;;;;;9.73;4.17;;;13.10;99.90;;;;;;4417115;28;658544;-63
2022/07/09 03:47:29;;;;;;;11.37;4.07;;;13.20;99.90;;;;;;4396343;28;657801;-63
2022/07/09 03:50:16;;;;;;;9.00;4.17;;;13.20;99.90;;;;;;4372822;28;658900;-63
2022/07/09 03:53:05;;;;;;;11.40;4.27;;;13.20;99.90;;;;;;4396393;28;658027;-63
2022/07/09 03:55:52;;;;;;;9.70;4.10;;;13.20;99.90;;;;;;4371701;28;659405;-64
2022/07/09 03:58:40;;;;;;;11.50;4.33;;;13.20;99.90;;;;;;4396401;28;657161;-64
2022/07/09 04:01:27;;;;;;;8.53;3.80;;;13.30;99.90;;;;;;4399217;28;659048;-63
2022/07/09 04:04:14;;;;;;;10.27;3.90;;;13.40;99.90;;;;;;4396289;28;658431;-63
2022/07/09 04:07:01;;;;;;;11.53;4.33;;;13.50;99.90;;;;;;4372248;28;658641;-64
2022/07/09 04:09:50;;;;;;;10.50;4.00;;;13.20;99.90;;;;;;4395123;28;659029;-63
2022/07/09 04:12:37;;;;;;;18.90;4.27;;;13.30;99.90;;;;;;4370766;28;660525;-63
2022/07/09 04:15:24;;;;;;;13.47;3.83;;;13.40;99.90;;;;;;4394399;28;658575;-63
2022/07/09 04:18:11;;;;;;;15.30;4.43;;;13.60;99.90;;;;;;4375936;28;658638;-63
2022/07/09 04:20:58;;;;;;;14.83;5.27;;;13.80;99.90;;;;;;4395239;28;659945;-63
2022/07/09 04:23:45;;;;;;;14.20;5.83;;;13.90;99.90;;;;;;4376048;28;658792;-64
2022/07/09 04:26:33;;;;;;;18.15;7.18;;;14.00;99.90;;;;;;4398861;28;658806;-63
2022/07/09 04:29:21;;;;;;;16.93;7.57;;;14.10;99.90;;;;;;4375772;28;658659;-64
2022/07/09 04:32:08;;;;;;;16.90;7.50;;;14.20;99.90;;;;;;4398849;28;658278;-63
2022/07/09 04:34:55;;;;;;;17.73;6.20;;;14.30;99.90;;;;;;4375631;28;658628;-64
2022/07/09 04:37:43;;;;;;;18.27;5.90;;;14.50;99.90;;;;;;4394772;28;660585;-63
2022/07/09 04:40:30;;;;;;;14.67;5.23;;;14.60;99.90;;;;;;4380112;28;659145;-65
2022/07/09 04:43:19;;;;;;;13.90;5.03;;;14.80;99.90;;;;;;4398424;28;659128;-63
2022/07/09 04:46:06;;;;;;;11.27;4.80;;;15.00;99.90;;;;;;4385243;28;659906;-64
2022/07/09 04:48:53;;;;;;;14.97;5.13;;;14.90;99.90;;;;;;4415081;28;659217;-63
2022/07/09 04:51:40;;;;;;;19.00;5.37;;;15.20;99.90;;;;;;4393056;28;658695;-64
2022/07/09 04:54:27;;;;;;;14.03;5.90;;;15.30;99.90;;;;;;4415654;28;658518;-63
2022/07/09 04:57:14;;;;;;;20.47;7.20;;;15.40;99.90;;;;;;4411163;28;658994;-63
2022/07/09 05:00:05;;;;;;;17.57;6.70;;;15.60;99.90;;;;;;4393222;28;659175;-63
2022/07/09 05:02:52;;;;;;;16.27;6.83;;;15.50;99.90;;;;;;4392809;28;659186;-63
2022/07/09 05:05:39;;;;;;;15.70;6.67;;;15.50;99.90;;;;;;4411825;28;659638;-63
2022/07/09 05:08:26;;;;;;;18.57;6.60;;;15.60;99.90;;;;;;4396346;28;659378;-64
2022/07/09 05:11:15;;;;;;;22.00;7.43;;;15.40;99.90;;;;;;4415063;28;659297;-63
2022/07/09 05:14:02;;;;;;;16.37;7.27;;;15.50;99.90;;;;;;4396728;28;658580;-63
2022/07/09 05:16:50;;;;;;;21.27;7.10;;;15.40;99.90;;;;;;4415094;28;659200;-63
2022/07/09 05:19:37;;;;;;;20.25;5.90;;;15.40;99.90;;;;;;4396310;28;659270;-63
2022/07/09 05:22:24;;;;;;;11.13;5.13;;;15.20;99.90;;;;;;4415261;28;658945;-63
2022/07/09 05:25:11;;;;;;;11.40;5.10;;;15.30;99.90;;;;;;4396602;28;658454;-63
2022/07/09 05:27:59;;;;;;;11.40;5.00;;;15.10;99.90;;;;;;4415064;28;659272;-63
2022/07/09 05:30:46;;;;;;;12.47;4.93;;;15.10;99.90;;;;;;4396160;28;658663;-64
2022/07/09 05:33:34;;;;;;;15.50;5.27;;;15.40;99.90;;;;;;4418772;28;659198;-64
2022/07/09 05:36:21;;;;;;;15.17;5.77;;;15.30;99.90;;;;;;4394826;28;658524;-63
2022/07/09 05:39:08;;;;;;;11.40;5.20;;;15.10;99.90;;;;;;4414578;28;659504;-63
2022/07/09 05:41:56;;;;;;;15.33;4.80;;;15.00;99.90;;;;;;4396037;28;658564;-64
2022/07/09 05:44:43;;;;;;;11.93;4.63;;;15.10;99.90;;;;;;4414513;28;659134;-63
2022/07/09 05:47:31;;;;;;;18.83;5.00;;;15.10;99.90;;;;;;4413125;28;658900;-63
2022/07/09 05:50:19;;;;;;;14.43;5.50;;;14.90;99.90;;;;;;4432695;28;659455;-63
2022/07/09 05:53:06;;;;;;;18.87;6.23;;;14.90;99.90;;;;;;4408348;28;658917;-63
2022/07/09 05:55:53;;;;;;;13.93;5.13;;;15.10;99.90;;;;;;4431721;28;659133;-63
2022/07/09 05:58:40;;;;;;;14.57;4.27;;;15.10;99.90;;;;;;4412436;28;659227;-63
2022/07/09 06:01:27;;;;;;;14.20;4.50;;;14.90;99.90;;;;;;4432160;28;660847;-63
2022/07/09 06:04:15;;;;;;;10.23;3.73;;;14.90;99.90;;;;;;4429688;28;658509;-65
2022/07/09 06:07:05;;;;;;;10.43;3.67;;;15.00;99.90;;;;;;4435822;28;658738;-63
2022/07/09 06:09:52;;;;;;;9.03;3.30;;;15.10;99.90;;;;;;4412725;28;658741;-64
2022/07/09 06:12:39;;;;;;;9.97;4.23;;;15.20;99.90;;;;;;4432809;28;658128;-63
2022/07/09 06:15:27;;;;;;;11.73;3.77;;;15.40;99.90;;;;;;4413705;28;657723;-64
2022/07/09 06:18:14;;;;;;;13.53;4.10;;;15.60;99.90;;;;;;4430812;28;658660;-63
2022/07/09 06:21:01;;;;;;;10.90;3.27;;;15.70;99.90;;;;;;4412358;28;658930;-63
2022/07/09 06:23:50;;;;;;;10.67;3.73;;;16.00;99.90;;;;;;4431754;28;659191;-63
2022/07/09 06:26:37;;;;;;;6.03;2.73;;;16.10;99.90;;;;;;4408473;28;660319;-63
2022/07/09 06:29:24;;;;;;;13.80;3.93;;;16.10;99.90;;;;;;4432284;28;657531;-63
2022/07/09 06:32:11;;;;;;;11.67;3.93;;;16.00;99.90;;;;;;4412169;28;658927;-64
2022/07/09 06:34:58;;;;;;;8.40;3.37;;;15.60;99.90;;;;;;4435116;28;659742;-63
2022/07/09 06:37:46;;;;;;;13.10;3.83;;;15.50;99.90;;;;;;4410548;28;657213;-64
2022/07/09 06:40:35;;;;;;;10.80;3.70;;;15.60;99.90;;;;;;4431255;28;658956;-64
2022/07/09 06:43:22;;;;;;;8.70;3.17;;;15.30;99.90;;;;;;4408677;28;660126;-64
2022/07/09 06:46:09;;;;;;;8.17;2.40;;;15.20;99.90;;;;;;4412933;28;658195;-63
2022/07/09 06:48:56;;;;;;;11.00;3.87;;;15.60;99.90;;;;;;4380255;28;657769;-66
2022/07/09 06:51:43;;;;;;;7.83;3.50;;;15.30;99.90;;;;;;4399113;28;659318;-65
2022/07/09 06:54:30;;;;;;;12.30;3.87;;;15.30;99.90;;;;;;4380696;28;658092;-66
2022/07/09 06:57:19;;;;;;;8.73;4.00;;;15.50;99.90;;;;;;4398113;28;660763;-65
2022/07/09 07:00:07;;;;;;;9.23;3.77;;;15.50;99.90;;;;;;4380346;28;657899;-65
2022/07/09 07:02:59;;;;;;;8.03;3.20;;;15.10;99.90;;;;;;4398922;28;658363;-65
2022/07/09 07:05:46;;;;;;;7.67;3.40;;;15.20;99.90;;;;;;4353614;28;657791;-65
2022/07/09 07:08:33;;;;;;;8.17;3.43;;;15.60;99.90;;;;;;4402788;28;658319;-65
2022/07/09 07:11:20;;;;;;;8.43;2.57;;;16.20;99.90;;;;;;4384823;28;657824;-66
2022/07/09 07:14:08;;;;;;;7.73;3.30;;;16.50;99.90;;;;;;4402670;28;658433;-65
2022/07/09 07:16:56;;;;;;;10.63;3.80;;;16.50;99.90;;;;;;4379769;28;658043;-66
2022/07/09 07:19:43;;;;;;;8.80;3.57;;;16.70;99.90;;;;;;4401791;28;659274;-66
2022/07/09 07:22:30;;;;;;;4.53;2.30;;;16.80;99.90;;;;;;4389216;28;657301;-66
2022/07/09 07:25:17;;;;;;;5.35;2.67;;;16.50;99.90;;;;;;4402366;28;657943;-65
2022/07/09 07:28:05;;;;;;;11.20;3.10;;;16.90;99.90;;;;;;4398391;28;658206;-65
2022/07/09 07:30:54;;;;;;;6.17;2.60;;;17.10;99.90;;;;;;4377513;28;658999;-65
2022/07/09 07:33:41;;;;;;;10.17;3.67;;;17.60;99.90;;;;;;4392684;28;657690;-66
2022/07/09 07:36:28;;;;;;;8.20;3.10;;;16.80;99.90;;;;;;4412758;28;659790;-65
2022/07/09 07:39:15;;;;;;;6.55;3.03;;;17.30;99.90;;;;;;4394960;28;657813;-67
2022/07/09 07:42:02;;;;;;;7.43;2.70;;;18.10;99.90;;;;;;4418294;28;658232;-65
2022/07/09 07:44:49;;;;;;;13.77;3.20;;;18.60;99.90;;;;;;4413722;28;657315;-65
2022/07/09 07:47:38;;;;;;;11.20;2.43;;;18.10;99.90;;;;;;4412062;28;659406;-66
2022/07/09 07:50:25;;;;;;;5.77;2.30;;;18.20;99.90;;;;;;4412208;28;658856;-66
2022/07/09 07:53:12;;;;;;;8.43;2.37;;;18.50;99.90;;;;;;4436109;28;659284;-65
2022/07/09 07:56:00;;;;;;;8.50;2.87;;;18.50;99.90;;;;;;4431939;28;658325;-65
2022/07/09 07:58:47;;;;;;;10.07;3.20;;;17.60;99.90;;;;;;4409176;28;659157;-63
2022/07/09 08:01:35;;;;;;;6.60;2.57;;;16.70;99.90;;;;;;4429039;28;658728;-65
2022/07/09 08:04:24;;;;;;;18.60;5.03;;;16.60;99.90;;;;;;4436065;28;658451;-63
2022/07/09 08:07:11;;;;;;;9.30;3.57;;;17.10;99.90;;;;;;4411571;28;658946;-64
2022/07/09 08:09:58;;;;;;;4.93;2.07;;;17.30;99.90;;;;;;4435683;28;658446;-63
2022/07/09 08:12:45;;;;;;;33.20;7.10;;;17.80;99.90;;;;;;4416951;28;657758;-65
2022/07/09 08:15:32;;;;;;;5.90;2.17;;;17.80;99.90;;;;;;4430580;28;659616;-63
2022/07/09 08:18:20;;;;;;;8.97;2.30;;;18.10;99.90;;;;;;4427953;28;657539;-65
2022/07/09 08:21:08;;;;;;;4.47;1.57;;;18.20;99.90;;;;;;4436034;28;658380;-63
2022/07/09 08:23:56;;;;;;;6.17;2.13;;;18.00;99.90;;;;;;4412289;28;657915;-64
2022/07/09 08:26:43;;;;;;;4.67;2.03;;;17.50;99.90;;;;;;4431861;28;657921;-63
2022/07/09 08:29:31;;;;;;;8.60;2.30;;;17.70;99.90;;;;;;4412633;28;658096;-64
2022/07/09 08:32:18;;;;;;;6.77;2.33;;;17.30;99.90;;;;;;4430975;28;658811;-64
2022/07/09 08:35:06;;;;;;;16.50;3.17;;;17.30;99.90;;;;;;4421167;28;658136;-65
2022/07/09 08:37:55;;;;;;;50.87;10.97;;;17.50;99.90;;;;;;4429513;28;658766;-63
2022/07/09 08:40:42;;;;;;;7.07;1.77;;;17.50;99.90;;;;;;4409237;28;659918;-63
2022/07/09 08:43:29;;;;;;;4.67;1.70;;;17.40;99.90;;;;;;4430570;28;657679;-63
2022/07/09 08:46:16;;;;;;;3.97;1.90;;;18.20;99.90;;;;;;4388584;28;657711;-64
2022/07/09 08:49:04;;;;;;;7.03;2.80;;;18.90;99.90;;;;;;4397288;28;658468;-63
2022/07/09 08:51:51;;;;;;;4.50;2.40;;;18.50;99.90;;;;;;4378583;28;657659;-64
2022/07/09 08:54:41;;;;;;;8.37;2.67;;;18.40;99.90;;;;;;4397048;28;659093;-64
2022/07/09 08:57:28;;;;;;;8.20;2.77;;;18.50;99.90;;;;;;4373355;28;658546;-63
2022/07/09 09:00:16;;;;;;;7.40;2.40;;;18.20;99.90;;;;;;4378689;28;657973;-65
2022/07/09 09:03:03;;;;;;;9.03;2.67;;;17.90;99.90;;;;;;4399719;28;657854;-63
2022/07/09 09:06:01;;;;;;;3.60;2.00;;;17.90;99.90;;;;;;4377640;28;657668;-65
2022/07/09 09:08:48;;;;;;;6.13;2.20;;;17.90;99.90;;;;;;4374778;28;657851;-63
2022/07/09 09:11:37;;;;;;;4.07;1.63;;;18.00;99.90;;;;;;4378519;28;658195;-64
2022/07/09 09:14:25;;;;;;;4.37;1.90;;;17.70;99.90;;;;;;4396922;28;657585;-63
2022/07/09 09:17:12;;;;;;;5.78;1.50;;;17.50;99.90;;;;;;4378335;28;658766;-63
2022/07/09 09:20:00;;;;;;;6.13;2.07;;;17.30;99.90;;;;;;4396939;28;658239;-63
2022/07/09 09:22:48;;;;;;;3.83;1.90;;;16.80;99.90;;;;;;4372562;28;659006;-63
2022/07/09 09:25:35;;;;;;;4.83;1.80;;;16.70;99.90;;;;;;4377699;28;657978;-64
2022/07/09 09:28:23;;;;;;;9.37;2.20;;;16.80;99.90;;;;;;4400245;28;658426;-63
2022/07/09 09:31:21;;;;;;;4.07;1.80;;;16.60;99.90;;;;;;4378070;28;657614;-63
2022/07/09 09:34:12;;;;;;;4.87;1.57;;;17.10;99.90;;;;;;4388290;28;658268;-63
2022/07/09 09:37:00;;;;;;;5.23;2.03;;;17.50;99.90;;;;;;4389595;28;657392;-63
2022/07/09 09:39:50;;;;;;;6.43;2.10;;;18.10;99.90;;;;;;4389881;28;658937;-63
2022/07/09 09:42:38;;;;;;;3.37;1.90;;;18.40;99.90;;;;;;4393746;28;658166;-63
2022/07/09 09:45:26;;;;;;;5.07;2.30;;;19.10;99.90;;;;;;4398396;28;657737;-65
2022/07/09 09:48:14;;;;;;;6.73;2.30;;;19.50;99.90;;;;;;4430283;28;658207;-63
2022/07/09 09:51:01;;;;;;;6.67;2.37;;;19.80;99.90;;;;;;4411192;28;657756;-63
2022/07/09 09:53:48;;;;;;;7.17;2.63;;;19.40;99.90;;;;;;4434827;28;657989;-63
2022/07/09 09:56:35;;;;;;;7.57;2.90;;;19.40;99.90;;;;;;4418138;28;657866;-65
2022/07/09 09:59:22;;;;;;;8.63;2.70;;;19.30;99.90;;;;;;4436890;28;658071;-63
2022/07/09 10:02:11;;;;;;;4.30;2.30;;;19.10;99.90;;;;;;4433469;28;658468;-64
2022/07/09 10:04:58;;;;;;;6.07;2.00;;;19.40;99.90;;;;;;4410104;28;658315;-64
2022/07/09 10:07:45;;;;;;;3.40;2.07;;;19.00;99.90;;;;;;4414166;28;657500;-64
2022/07/09 10:10:32;;;;;;;7.50;2.40;;;19.40;99.90;;;;;;4433023;28;659292;-64
2022/07/09 10:13:22;;;;;;;4.53;2.00;;;20.40;99.90;;;;;;4432930;28;657374;-63
2022/07/09 10:16:10;;;;;;;4.93;2.33;;;20.00;99.90;;;;;;4406129;28;657603;-65
2022/07/09 10:18:59;;;;;;;8.03;2.60;;;20.00;99.90;;;;;;4437113;28;657864;-64
2022/07/09 10:21:52;;;;;;;7.40;3.00;;;20.30;99.90;;;;;;4413810;28;657803;-64
2022/07/09 10:24:39;;;;;;;4.50;2.53;;;19.90;99.90;;;;;;4409909;28;657803;-63
2022/07/09 10:27:26;;;;;;;8.63;2.70;;;19.50;99.90;;;;;;4409520;28;657694;-63
2022/07/09 10:30:24;;;;;;;6.63;2.90;;;19.40;99.90;;;;;;4432953;28;658111;-63
2022/07/09 10:33:12;;;;;;;5.17;2.60;;;19.10;99.90;;;;;;4413752;28;657631;-63
2022/07/09 10:36:10;;;;;;;2.73;2.10;;;18.70;99.90;;;;;;4432279;28;658218;-62
2022/07/09 10:38:57;;;;;;;5.47;2.00;;;18.40;99.90;;;;;;4413360;28;657409;-63
2022/07/09 10:41:44;;;;;;;7.00;2.67;;;18.30;99.90;;;;;;4431984;28;658058;-63
2022/07/09 10:44:35;;;;;;;7.73;2.83;;;18.50;99.90;;;;;;4410094;28;657773;-64
2022/07/09 10:47:22;;;;;;;4.13;1.80;;;18.60;99.90;;;;;;4380873;28;658955;-63
2022/07/09 10:50:10;;;;;;;5.80;2.50;;;18.90;99.90;;;;;;4399366;28;658011;-64
2022/07/09 10:52:59;;;;;;;6.50;2.80;;;19.00;99.90;;;;;;4376905;28;659127;-64
2022/07/09 10:55:46;;;;;;;6.57;2.40;;;19.30;99.90;;;;;;4380318;28;657648;-63
2022/07/09 10:58:33;;;;;;;7.57;2.70;;;19.70;99.90;;;;;;4398648;28;658196;-64
2022/07/09 11:01:21;;;;;;;6.17;2.20;;;20.20;99.90;;;;;;4380195;28;657467;-65
2022/07/09 11:04:08;;;;;;;4.47;2.37;;;20.90;99.90;;;;;;4398045;28;658937;-64
2022/07/09 11:06:55;;;;;;;7.17;2.30;;;20.20;98.60;;;;;;4380091;28;657833;-64
2022/07/09 11:09:44;;;;;;;4.70;2.10;;;19.90;99.90;;;;;;4399046;28;659008;-64
2022/07/09 11:12:31;;;;;;;3.40;2.00;;;19.10;99.90;;;;;;4380467;28;657573;-64
2022/07/09 11:15:18;;;;;;;8.83;2.20;;;19.30;99.90;;;;;;4399007;28;659063;-63
2022/07/09 11:18:06;;;;;;;6.17;2.30;;;19.80;99.90;;;;;;4380127;28;657487;-64
2022/07/09 11:20:53;;;;;;;2.67;2.13;;;20.60;99.90;;;;;;4401933;28;657977;-64
2022/07/09 11:23:40;;;;;;;4.73;2.40;;;21.60;96.20;;;;;;4384441;28;657746;-65
2022/07/09 11:26:29;;;;;;;6.40;2.20;;;22.20;95.40;;;;;;4402789;28;657467;-64
2022/07/09 11:29:17;;;;;;;4.20;2.20;;;22.80;92.10;;;;;;4375974;28;657425;-64
2022/07/09 11:32:05;;;;;;;3.57;1.53;;;22.30;90.90;;;;;;4398727;28;657441;-65
2022/07/09 11:34:53;;;;;;;4.17;1.57;;;21.90;90.70;;;;;;4414964;28;659301;-64
2022/07/09 11:37:45;;;;;;;3.07;1.80;;;21.00;88.80;;;;;;4407671;28;657690;-64
2022/07/09 11:40:32;;;;;;;3.30;1.47;;;20.50;90.60;;;;;;4395985;28;657964;-63
2022/07/09 11:43:21;;;;;;;3.72;1.60;;;19.90;91.50;;;;;;4414891;28;657865;-64
2022/07/09 11:46:08;;;;;;;3.33;1.60;;;19.60;92.20;;;;;;4401262;28;658835;-63
2022/07/09 11:48:55;;;;;;;4.33;1.60;;;19.20;94.00;;;;;;4422196;28;657559;-64
2022/07/09 11:51:42;;;;;;;5.40;1.70;;;19.20;94.10;;;;;;4431263;28;659682;-64
2022/07/09 11:54:30;;;;;;;2.83;1.53;;;19.30;95.30;;;;;;4428732;28;658103;-65
2022/07/09 11:57:21;;;;;;;3.60;2.00;;;20.00;94.60;;;;;;4434968;28;659244;-63
2022/07/09 12:00:23;;;;;;;3.20;1.70;;;21.10;94.90;;;;;;4407023;28;658247;-63
2022/07/09 12:03:10;;;;;;;7.00;1.77;;;21.40;90.00;;;;;;4389339;28;658307;-64
2022/07/09 12:05:57;;;;;;;3.77;1.90;;;21.60;85.90;;;;;;4430932;28;658867;-64
2022/07/09 12:08:44;;;;;;;5.73;1.87;;;21.10;89.60;;;;;;4431383;28;657807;-64
2022/07/09 12:11:31;;;;;;;5.07;1.70;;;20.70;88.80;;;;;;4411900;28;659296;-63
2022/07/09 12:14:19;;;;;;;8.93;1.70;;;20.60;92.10;;;;;;4431253;28;658023;-63
2022/07/09 12:17:07;;;;;;;6.10;2.13;;;20.70;95.40;;;;;;4411401;28;658021;-64
2022/07/09 12:19:54;;;;;;;4.97;2.03;;;20.30;95.70;;;;;;4430751;28;658679;-64
2022/07/09 12:22:41;;;;;;;4.13;1.90;;;20.50;97.40;;;;;;4406867;28;657886;-64
2022/07/09 12:25:28;;;;;;;5.60;2.10;;;20.30;94.60;;;;;;4430948;28;657985;-64
2022/07/09 12:28:15;;;;;;;4.63;2.00;;;20.10;95.10;;;;;;4411946;28;657495;-64
2022/07/09 12:31:03;;;;;;;4.60;1.87;;;19.70;99.80;;;;;;4430949;28;659236;-64
2022/07/09 12:33:51;;;;;;;3.63;1.70;;;20.60;98.60;;;;;;4422836;28;657955;-65
2022/07/09 12:36:41;;;;;;;1.73;1.10;;;21.70;92.00;;;;;;4430476;28;658181;-64
2022/07/09 12:39:28;;;;;;;2.97;1.40;;;21.80;83.40;;;;;;4407793;28;658225;-63
2022/07/09 12:42:15;;;;;;;3.87;1.37;;;22.10;85.30;;;;;;4416969;28;657474;-65
2022/07/09 12:45:02;;;;;;;4.03;1.30;;;21.60;76.80;;;;;;4432606;28;657977;-63
2022/07/09 12:47:49;;;;;;;3.43;1.53;;;21.20;76.80;;;;;;4413734;28;658128;-63
2022/07/09 12:50:38;;;;;;;2.17;1.13;;;20.80;78.50;;;;;;4395255;28;658588;-63
2022/07/09 12:53:25;;;;;;;3.37;1.20;;;21.10;73.50;;;;;;4395062;28;657705;-65
2022/07/09 12:56:12;;;;;;;4.33;1.13;;;20.80;68.90;;;;;;4417786;28;657583;-64
2022/07/09 12:58:59;;;;;;;4.47;1.20;;;21.60;66.20;;;;;;4413362;28;657979;-64
2022/07/09 13:01:46;;;;;;;3.77;1.10;;;22.40;63.00;;;;;;4392161;28;658316;-63
2022/07/09 13:04:33;;;;;;;4.40;0.90;;;22.70;64.70;;;;;;4413425;28;658887;-64
2022/07/09 13:07:22;;;;;;;4.07;1.60;;;22.10;62.70;;;;;;4395426;28;657694;-64
2022/07/09 13:10:09;;;;;;;3.37;1.30;;;22.30;65.50;;;;;;4413248;28;658320;-63
2022/07/09 13:12:56;;;;;;;3.83;1.20;;;23.40;61.70;;;;;;4391634;28;658108;-64
2022/07/09 13:15:43;;;;;;;5.03;1.40;;;23.00;61.20;;;;;;4413935;28;658838;-64
2022/07/09 13:18:30;;;;;;;3.93;1.23;;;22.80;63.90;;;;;;4394868;28;657711;-64
2022/07/09 13:21:18;;;;;;;2.93;1.23;;;22.50;61.20;;;;;;4413767;28;659059;-64
2022/07/09 13:24:07;;;;;;;3.17;1.30;;;21.90;62.70;;;;;;4403674;28;657987;-65
2022/07/09 13:26:54;;;;;;;6.30;1.10;;;22.10;66.90;;;;;;4413782;28;657810;-64
2022/07/09 13:29:41;;;;;;;2.20;1.17;;;22.50;64.50;;;;;;4397028;28;657373;-63
2022/07/09 13:32:28;;;;;;;2.90;1.20;;;23.20;63.00;;;;;;4419915;28;658832;-64
2022/07/09 13:35:15;;;;;;;4.73;1.40;;;22.90;62.40;;;;;;4400086;28;657849;-64
2022/07/09 13:38:02;;;;;;;2.50;1.03;;;23.20;59.70;;;;;;4419985;28;658412;-64
2022/07/09 13:40:51;;;;;;;4.27;1.23;;;22.20;60.70;;;;;;4415836;28;658380;-63
2022/07/09 13:43:38;;;;;;;3.93;1.20;;;22.70;63.80;;;;;;4393249;28;658546;-64
2022/07/09 13:46:25;;;;;;;4.53;1.10;;;23.20;62.80;;;;;;4402297;28;657554;-65
2022/07/09 13:49:12;;;;;;;4.50;1.30;;;23.20;58.10;;;;;;4420643;28;657977;-64
2022/07/09 13:51:59;;;;;;;3.50;1.30;;;23.80;56.60;;;;;;4416356;28;657910;-64
2022/07/09 13:54:46;;;;;;;4.07;1.20;;;23.40;56.60;;;;;;4394337;28;658154;-64
2022/07/09 13:57:35;;;;;;;3.47;1.30;;;23.30;57.30;;;;;;4416366;28;658486;-64
2022/07/09 14:00:22;;;;;;;2.67;1.20;;;24.00;56.70;;;;;;4392815;28;658677;-64
2022/07/09 14:03:09;;;;;;;7.40;1.43;;;23.20;55.10;;;;;;4416687;28;658034;-63
2022/07/09 14:05:56;;;;;;;1.70;1.10;;;23.10;57.10;;;;;;4397552;28;658249;-63
2022/07/09 14:08:43;;;;;;;3.23;1.37;;;23.40;56.60;;;;;;4420048;28;659013;-63
2022/07/09 14:11:30;;;;;;;2.00;1.40;;;22.90;56.80;;;;;;4397381;28;658072;-64
2022/07/09 14:14:19;;;;;;;3.13;1.30;;;22.80;56.10;;;;;;4416341;28;658968;-64
2022/07/09 14:17:06;;;;;;;1.10;1.00;;;23.00;57.10;;;;;;4397019;28;658082;-64